Orangefield, TX

11:02 AM CDT on September 21, 2017 (GMT -0500)
Bucket's Weather Station | | Change Station
Active Advisory: Flood Warning

Elev 9 ft 30.04 °N, 93.86 °W | Updated 0 second ago

Partly Cloudy
Partly Cloudy
88.9 °F
Feels Like 110 °F
N
1.3
Wind Variable Wind from South
Gusts 4.0 mph

Today
High -- | Low -- °F
--% Chance of Precip.
Yesterday
High -- | Low -- °F
Precip. -- in
Pressure 30.03 in
Visibility 10.0 miles
Clouds Scattered Clouds 2600 ft
Scattered Clouds 3600 ft
Heat Index 110 °F
Dew Point 82 °F
Humidity 81%
Rainfall 0.00 in
Snow Depth Not available.
7:03 AM 7:12 PM
New Moon, 2% visible
METAR KORG 211555Z AUTO 18004KT 10SM SCT026 SCT036 30/25 A3003 RMK AO2 LTG DSNT SW T02980246
Pressure 30.03 in
Visibility 10.0 miles
Clouds Scattered Clouds 2600 ft
Scattered Clouds 3600 ft
Heat Index 110 °F
Dew Point 82 °F
Humidity 81%
Rainfall 0.00 in
Snow Depth Not available.
7:03 AM 7:12 PM
New Moon, 2% visible
METAR KORG 211555Z AUTO 18004KT 10SM SCT026 SCT036 30/25 A3003 RMK AO2 LTG DSNT SW T02980246

Get Your Daily Forecast Email!

Thanks for signing up!

Be on the lookout for a verification email in your inbox.

You'll start receiving severe weather alerts in your inbox..

×

10-Day Weather Forecast

Almanac

Astronomy

Sep. 21, 2017 Rise Set
Actual Time
Civil Twilight
Nautical Twilight
Astronomical Twilight
Moon
Length of Visible Light
Length of Day
Tomorrow will be .
, % of the Moon is Illuminated

Today's Extremes

State Highs State Lows

Community

WunderPhotos

Category 6

Welcome to Category 6. This is the collective home for Weather Underground's featured writeups by Dr. Jeff Masters (right), Bob Henson (left), Chris Burt, and other regular contributors.

Nearby

Air Quality

  Air Quality AQ Index Pollutant
Not available.

Snow Depth

Station Depth Elevation

Earthquake Activity

City Distance Mag. Time & Date
Minimum magnitude displayed is 2.5.

Coastal Water Temperatures

Place Temperature

Stations

Nearby Weather Stations

Station Location Temp. Windchill Dew Point Humidity Wind Precip. Elev Updated Type
                   

Watches & Warnings

Flood Warning
Issued: 10:04 AM CDT Sep. 21, 2017 – National Weather Service

The Flood Warning continues for
the Sabine River near Deweyville.
* Until further notice... or until the warning is cancelled.
* At 9:45 am Thursday the stage was 24.1 feet.
* Minor flooding is occurring and minor flooding is forecast.
* Flood stage is 24.0 feet.
* Forecast... the river will continue rising to near 24.2 feet by
Saturday early afternoon then begin falling.
* Impact... at stages near 24.0 feet... minor lowland flooding will
occur.

Lat... Lon 3057 9363 3011 9364 3011 9378 3031 9381
      3062 9378